Time;durP1;ratioP1;P1;durP2;ratioP2;P2;SDS_P1;SDS_P2;PMS_P1;PMS_P2;Temp;Humidity;BMP_temperature;BMP_pressure;BME280_temperature;BME280_humidity;BME280_pressure;Samples;Min_cycle;Max_cycle;Signal;HPM_P1;HPM_P2
2021/11/23 00:00:44;;;;;;;7.53;5.28;;;4.10;99.90;;;;;;5069329;28;20511;-43
2021/11/23 00:03:11;;;;;;;8.27;5.20;;;4.10;99.90;;;;;;5070720;28;20033;-42
2021/11/23 00:05:36;;;;;;;7.25;4.97;;;4.00;99.90;;;;;;5070116;28;20016;-43
2021/11/23 00:08:03;;;;;;;7.97;5.28;;;4.00;99.90;;;;;;5070028;28;20074;-44
2021/11/23 00:10:29;;;;;;;7.80;5.65;;;3.90;99.90;;;;;;5069542;28;20116;-43
2021/11/23 00:12:55;;;;;;;9.32;5.80;;;4.00;99.90;;;;;;5068025;28;20142;-42
2021/11/23 00:15:21;;;;;;;9.32;5.88;;;3.90;99.90;;;;;;5069937;28;20025;-42
2021/11/23 00:17:46;;;;;;;9.68;6.43;;;3.90;99.90;;;;;;5069881;28;20064;-42
2021/11/23 00:20:12;;;;;;;10.07;6.15;;;3.90;99.90;;;;;;5069525;28;20027;-42
2021/11/23 00:22:37;;;;;;;8.15;6.22;;;3.90;99.90;;;;;;5069455;28;20032;-43
2021/11/23 00:25:05;;;;;;;9.98;6.47;;;3.90;99.90;;;;;;5069798;28;20020;-42
2021/11/23 00:27:31;;;;;;;11.95;6.60;;;3.90;99.90;;;;;;5070174;28;20017;-43
2021/11/23 00:29:56;;;;;;;12.23;6.78;;;3.90;99.90;;;;;;5069423;28;20078;-43
2021/11/23 00:32:22;;;;;;;9.80;6.82;;;3.80;99.90;;;;;;5069987;28;20021;-42
2021/11/23 00:34:47;;;;;;;12.23;6.85;;;3.90;99.90;;;;;;5069840;28;20024;-43
2021/11/23 00:37:13;;;;;;;7.97;6.18;;;3.90;99.90;;;;;;5069054;28;20041;-43
2021/11/23 00:39:39;;;;;;;13.25;7.00;;;3.90;99.90;;;;;;5069842;28;20020;-43
2021/11/23 00:42:07;;;;;;;12.68;6.38;;;4.00;99.90;;;;;;5068846;28;20469;-44
2021/11/23 00:44:33;;;;;;;12.10;6.65;;;4.00;99.90;;;;;;5069782;28;20464;-42
2021/11/23 00:46:58;;;;;;;10.95;6.15;;;4.10;99.90;;;;;;5068835;28;20063;-43
2021/11/23 00:49:24;;;;;;;9.40;6.18;;;4.10;99.90;;;;;;5068861;28;20048;-42
2021/11/23 00:51:50;;;;;;;8.82;5.72;;;4.20;99.90;;;;;;5069718;28;20464;-41
2021/11/23 00:54:16;;;;;;;7.32;4.60;;;4.20;99.90;;;;;;5069890;28;20521;-42
2021/11/23 00:56:43;;;;;;;8.35;4.45;;;4.30;99.90;;;;;;5068616;28;20056;-44
2021/11/23 00:59:08;;;;;;;6.07;3.63;;;4.40;99.90;;;;;;5069116;28;20039;-43
2021/11/23 01:01:34;;;;;;;8.45;3.45;;;4.50;99.90;;;;;;5069040;28;20024;-42
2021/11/23 01:03:59;;;;;;;7.75;4.22;;;4.70;99.90;;;;;;5068845;28;20032;-43
2021/11/23 01:06:25;;;;;;;9.13;4.30;;;4.80;99.90;;;;;;5069121;28;20035;-43
2021/11/23 01:08:51;;;;;;;7.85;4.68;;;4.90;99.90;;;;;;5068173;28;20190;-43
2021/11/23 01:11:18;;;;;;;6.82;4.60;;;4.90;99.90;;;;;;5068341;28;20480;-42
2021/11/23 01:13:44;;;;;;;6.63;4.90;;;5.00;99.90;;;;;;5069676;28;20111;-43
2021/11/23 01:16:11;;;;;;;8.70;5.53;;;4.90;99.90;;;;;;5068538;28;20099;-43
2021/11/23 01:18:37;;;;;;;7.15;5.13;;;4.90;99.90;;;;;;5068662;28;20049;-43
2021/11/23 01:21:05;;;;;;;8.25;5.35;;;4.90;99.90;;;;;;5068902;28;20500;-43
2021/11/23 01:23:31;;;;;;;5.70;4.63;;;4.90;99.90;;;;;;5068443;28;20032;-43
2021/11/23 01:25:57;;;;;;;6.85;4.80;;;4.90;99.90;;;;;;5068972;28;20031;-42
2021/11/23 01:28:23;;;;;;;9.02;5.28;;;4.80;99.90;;;;;;5067209;28;20110;-42
2021/11/23 01:30:50;;;;;;;9.45;6.40;;;4.80;99.90;;;;;;5068883;28;20017;-42
2021/11/23 01:33:16;;;;;;;10.70;5.43;;;4.80;99.90;;;;;;5068768;28;20025;-42
2021/11/23 01:35:42;;;;;;;9.75;5.05;;;4.90;99.90;;;;;;5068036;28;20027;-43
2021/11/23 01:38:13;;;;;;;7.50;4.88;;;4.80;99.90;;;;;;5068450;28;20040;-44
2021/11/23 01:40:39;;;;;;;6.65;4.95;;;4.80;99.90;;;;;;5068386;28;20658;-43
2021/11/23 01:43:07;;;;;;;9.07;5.32;;;4.80;99.90;;;;;;5068501;28;20035;-42
2021/11/23 01:45:35;;;;;;;10.20;5.13;;;4.80;99.90;;;;;;5067822;28;20082;-42
2021/11/23 01:48:01;;;;;;;7.10;5.38;;;4.80;99.90;;;;;;5068318;28;20016;-44
2021/11/23 01:50:26;;;;;;;7.57;5.47;;;4.80;99.90;;;;;;5068597;28;20482;-43
2021/11/23 01:52:53;;;;;;;7.45;5.07;;;4.80;99.90;;;;;;5067417;28;20101;-42
2021/11/23 01:55:19;;;;;;;8.00;5.07;;;4.80;99.90;;;;;;5069058;28;20052;-42
2021/11/23 01:57:44;;;;;;;6.50;4.60;;;4.90;99.90;;;;;;5067755;28;20064;-42
2021/11/23 02:00:11;;;;;;;7.22;4.80;;;4.80;99.90;;;;;;5067472;28;20681;-43
2021/11/23 02:02:37;;;;;;;7.78;4.38;;;4.90;99.90;;;;;;5068415;28;20349;-42
2021/11/23 02:05:03;;;;;;;9.43;5.20;;;4.90;99.90;;;;;;5068059;28;20473;-44
2021/11/23 02:07:29;;;;;;;8.38;5.22;;;4.90;99.90;;;;;;5067307;28;20135;-42
2021/11/23 02:09:55;;;;;;;6.53;5.05;;;4.90;99.90;;;;;;5068302;28;20112;-41
2021/11/23 02:12:21;;;;;;;8.07;4.88;;;4.90;99.90;;;;;;5068074;28;20032;-43
2021/11/23 02:14:47;;;;;;;7.20;5.47;;;4.90;99.90;;;;;;5067567;28;20029;-43
2021/11/23 02:17:13;;;;;;;9.25;5.93;;;4.90;99.90;;;;;;5068028;28;20047;-45
2021/11/23 02:19:44;;;;;;;8.60;5.50;;;4.90;99.90;;;;;;5067452;28;20568;-43
2021/11/23 02:22:10;;;;;;;11.13;6.30;;;4.80;99.90;;;;;;5047359;28;20094;-43
2021/11/23 02:24:35;;;;;;;8.63;5.43;;;4.80;99.90;;;;;;5062104;28;20028;-43
2021/11/23 02:27:01;;;;;;;8.23;5.28;;;4.80;99.90;;;;;;5067604;28;20487;-43
2021/11/23 02:29:26;;;;;;;10.93;5.95;;;4.80;99.90;;;;;;5066916;28;20024;-44
2021/11/23 02:31:52;;;;;;;7.68;5.72;;;4.80;99.90;;;;;;5067669;28;20067;-44
2021/11/23 02:34:17;;;;;;;9.65;5.72;;;4.80;99.90;;;;;;5067883;28;20023;-43
2021/11/23 02:36:43;;;;;;;8.73;5.43;;;4.90;99.90;;;;;;5066794;28;20051;-42
2021/11/23 02:39:09;;;;;;;10.20;5.68;;;4.80;99.90;;;;;;5067446;28;20846;-43
2021/11/23 02:41:37;;;;;;;10.50;5.70;;;4.90;99.90;;;;;;5067660;28;20021;-43
2021/11/23 02:44:03;;;;;;;9.80;6.30;;;4.90;99.90;;;;;;5066679;28;20423;-43
2021/11/23 02:46:29;;;;;;;8.45;6.20;;;4.90;99.90;;;;;;5067364;28;20028;-43
2021/11/23 02:48:54;;;;;;;8.38;5.82;;;4.90;99.90;;;;;;5066764;28;20024;-43
2021/11/23 02:51:20;;;;;;;9.13;6.25;;;4.90;99.90;;;;;;5067497;28;20710;-43
2021/11/23 02:53:50;;;;;;;13.30;6.45;;;4.90;99.90;;;;;;5067156;28;20459;-42
2021/11/23 02:56:16;;;;;;;8.63;6.00;;;5.00;99.90;;;;;;5066060;28;20498;-44
2021/11/23 02:58:47;;;;;;;11.27;6.82;;;4.90;99.90;;;;;;5067101;28;20455;-43
2021/11/23 03:01:15;;;;;;;8.27;5.25;;;4.90;99.90;;;;;;5066253;28;20028;-43
2021/11/23 03:03:41;;;;;;;9.30;7.18;;;5.00;99.90;;;;;;5066993;28;20536;-43
2021/11/23 03:06:12;;;;;;;10.23;6.22;;;4.90;99.90;;;;;;5067622;28;20508;-44
2021/11/23 03:08:38;;;;;;;7.75;5.90;;;4.90;99.90;;;;;;5067071;28;20043;-44
2021/11/23 03:11:04;;;;;;;11.15;5.82;;;4.90;99.90;;;;;;5066108;28;20444;-42
2021/11/23 03:13:29;;;;;;;8.63;5.82;;;4.90;99.90;;;;;;5067219;28;20032;-42
2021/11/23 03:15:55;;;;;;;8.70;6.18;;;5.00;99.90;;;;;;5066536;28;20055;-43
2021/11/23 03:18:20;;;;;;;8.93;5.97;;;5.00;99.90;;;;;;5066664;28;20032;-43
2021/11/23 03:20:46;;;;;;;8.95;6.40;;;5.00;99.90;;;;;;5066629;28;20048;-42
2021/11/23 03:23:12;;;;;;;10.07;6.03;;;5.10;99.90;;;;;;5066602;28;20081;-45
2021/11/23 03:25:38;;;;;;;9.35;5.78;;;5.10;99.90;;;;;;5066100;28;20672;-43
2021/11/23 03:28:05;;;;;;;9.68;6.35;;;5.10;99.90;;;;;;5066688;28;20020;-42
2021/11/23 03:30:32;;;;;;;7.63;5.50;;;5.20;99.90;;;;;;5066601;28;20024;-43
2021/11/23 03:32:59;;;;;;;7.57;5.65;;;5.10;99.90;;;;;;5065991;28;20032;-43
2021/11/23 03:35:31;;;;;;;8.75;6.00;;;5.20;99.90;;;;;;5066771;28;20027;-43
2021/11/23 03:37:56;;;;;;;7.57;6.13;;;5.20;99.90;;;;;;5062588;28;20400;-43
2021/11/23 03:40:24;;;;;;;7.75;6.00;;;5.20;99.90;;;;;;5067406;28;20025;-43
2021/11/23 03:42:51;;;;;;;8.63;6.00;;;5.20;99.90;;;;;;5066213;28;20507;-43
2021/11/23 03:45:23;;;;;;;12.38;6.57;;;5.20;99.90;;;;;;5066626;28;20057;-43
2021/11/23 03:47:49;;;;;;;9.37;6.23;;;5.20;99.90;;;;;;5066954;28;20036;-42
2021/11/23 03:50:16;;;;;;;7.35;5.82;;;5.20;99.90;;;;;;5066674;28;20044;-42
2021/11/23 03:52:52;;;;;;;8.18;6.50;;;5.20;99.90;;;;;;5065880;28;20129;-43
2021/11/23 03:55:19;;;;;;;8.68;6.13;;;5.20;99.90;;;;;;5046751;28;20017;-43
2021/11/23 03:57:46;;;;;;;9.13;6.57;;;5.20;99.90;;;;;;5061286;28;20043;-43
2021/11/23 04:00:13;;;;;;;8.52;5.88;;;5.20;99.90;;;;;;5066395;28;20115;-43
2021/11/23 04:02:40;;;;;;;7.95;5.90;;;5.20;99.90;;;;;;5066215;28;20064;-43
2021/11/23 04:05:07;;;;;;;8.93;6.22;;;5.30;99.90;;;;;;5066270;28;20025;-42
2021/11/23 04:07:33;;;;;;;7.90;5.82;;;5.30;99.90;;;;;;5065969;28;20052;-44
2021/11/23 04:09:58;;;;;;;7.88;5.55;;;5.30;99.90;;;;;;5066576;28;20102;-43
2021/11/23 04:12:24;;;;;;;7.72;5.47;;;5.30;99.90;;;;;;5066164;28;20178;-42
2021/11/23 04:14:49;;;;;;;7.80;5.50;;;5.30;99.90;;;;;;5065733;28;20024;-43
2021/11/23 04:17:15;;;;;;;9.40;5.75;;;5.30;99.90;;;;;;5066567;28;20048;-43
2021/11/23 04:19:40;;;;;;;8.68;5.65;;;5.40;99.90;;;;;;5066001;28;20036;-42
2021/11/23 04:22:07;;;;;;;7.38;5.20;;;5.40;99.90;;;;;;5065538;28;20028;-43
2021/11/23 04:24:34;;;;;;;8.40;5.82;;;5.40;99.90;;;;;;5066591;28;20159;-43
2021/11/23 04:26:59;;;;;;;7.63;5.78;;;5.50;99.90;;;;;;5065440;28;20543;-43
2021/11/23 04:29:25;;;;;;;8.32;5.72;;;5.50;99.90;;;;;;5065508;28;20021;-43
2021/11/23 04:31:51;;;;;;;6.85;5.57;;;5.50;99.90;;;;;;5066721;28;20024;-44
2021/11/23 04:34:17;;;;;;;7.85;5.60;;;5.50;99.90;;;;;;5065913;28;20036;-43
2021/11/23 04:36:43;;;;;;;7.30;5.40;;;5.50;99.90;;;;;;5066076;28;20029;-42
2021/11/23 04:39:11;;;;;;;7.47;5.43;;;5.60;99.90;;;;;;5065736;28;20039;-43
2021/11/23 04:41:37;;;;;;;7.85;5.68;;;5.60;99.90;;;;;;5066121;28;20054;-43
2021/11/23 04:44:03;;;;;;;8.05;5.50;;;5.60;99.90;;;;;;5066048;28;20117;-43
2021/11/23 04:46:28;;;;;;;7.20;5.82;;;5.60;99.90;;;;;;5069826;28;20036;-42
2021/11/23 04:48:54;;;;;;;8.05;5.70;;;5.60;99.90;;;;;;5068817;28;20093;-43
2021/11/23 04:51:21;;;;;;;9.75;5.50;;;5.70;99.90;;;;;;5069995;28;20027;-42
2021/11/23 04:53:46;;;;;;;8.05;5.07;;;5.70;99.90;;;;;;5069085;28;20031;-43
2021/11/23 04:56:12;;;;;;;8.73;5.70;;;5.70;99.90;;;;;;5068968;28;20016;-43
2021/11/23 04:58:38;;;;;;;5.15;4.47;;;5.70;99.90;;;;;;5069811;28;20617;-42
2021/11/23 05:01:03;;;;;;;7.32;4.85;;;5.70;99.90;;;;;;5069330;28;20012;-43
2021/11/23 05:03:29;;;;;;;12.57;4.85;;;5.70;99.90;;;;;;5068718;28;20028;-42
2021/11/23 05:05:54;;;;;;;6.30;4.43;;;5.70;99.90;;;;;;5069436;28;20013;-42
2021/11/23 05:08:20;;;;;;;7.78;4.95;;;5.80;99.90;;;;;;5069650;28;20111;-42
2021/11/23 05:10:46;;;;;;;7.55;4.43;;;5.80;99.90;;;;;;5068490;28;20094;-43
2021/11/23 05:13:11;;;;;;;7.65;4.70;;;5.80;99.90;;;;;;5069539;28;20082;-43
2021/11/23 05:15:37;;;;;;;7.50;4.75;;;5.80;99.90;;;;;;5068580;28;20028;-43
2021/11/23 05:18:02;;;;;;;6.45;4.50;;;5.80;99.90;;;;;;5068412;28;20076;-42
2021/11/23 05:20:28;;;;;;;8.05;4.63;;;5.80;99.90;;;;;;5069512;28;20067;-43
2021/11/23 05:22:53;;;;;;;7.68;4.25;;;5.80;99.90;;;;;;5068814;28;20074;-42
2021/11/23 05:25:19;;;;;;;5.78;4.38;;;5.80;99.90;;;;;;5068689;28;20032;-42
2021/11/23 05:27:45;;;;;;;5.32;4.18;;;5.80;99.90;;;;;;5069054;28;20230;-43
2021/11/23 05:30:11;;;;;;;8.50;4.15;;;5.90;99.90;;;;;;5068936;28;20100;-42
2021/11/23 05:32:39;;;;;;;5.90;4.40;;;5.90;99.90;;;;;;5068730;28;20021;-43
2021/11/23 05:35:05;;;;;;;7.57;4.22;;;5.90;99.90;;;;;;5069237;28;20016;-43
2021/11/23 05:37:31;;;;;;;6.30;4.22;;;5.90;99.90;;;;;;5068113;28;20025;-43
2021/11/23 05:39:56;;;;;;;6.68;4.47;;;5.90;99.90;;;;;;5068678;28;20021;-43
2021/11/23 05:42:22;;;;;;;7.30;4.07;;;6.00;99.90;;;;;;5068414;28;20079;-42
2021/11/23 05:44:50;;;;;;;5.97;3.90;;;6.00;99.90;;;;;;5068634;28;20024;-44
2021/11/23 05:47:15;;;;;;;5.72;4.60;;;6.00;99.90;;;;;;5068720;28;20099;-43
2021/11/23 05:49:42;;;;;;;9.85;4.35;;;6.00;99.90;;;;;;5068799;28;20103;-43
2021/11/23 05:52:07;;;;;;;7.20;4.13;;;6.00;99.90;;;;;;5067533;28;20021;-44
2021/11/23 05:54:33;;;;;;;7.60;4.70;;;6.00;99.90;;;;;;5068691;28;20029;-42
2021/11/23 05:56:59;;;;;;;8.35;5.40;;;6.00;99.90;;;;;;5067786;28;20490;-43
2021/11/23 05:59:25;;;;;;;10.23;4.90;;;6.00;99.90;;;;;;5068034;28;20021;-43
2021/11/23 06:01:50;;;;;;;8.55;5.00;;;6.00;99.90;;;;;;5068267;28;20023;-43
2021/11/23 06:04:16;;;;;;;6.68;4.47;;;6.00;99.90;;;;;;5068479;28;20062;-43
2021/11/23 06:06:41;;;;;;;6.03;3.88;;;6.00;99.90;;;;;;5067654;28;20081;-43
2021/11/23 06:09:07;;;;;;;7.90;4.30;;;6.00;99.90;;;;;;5068483;28;20021;-43
2021/11/23 06:11:33;;;;;;;7.03;4.22;;;6.00;99.90;;;;;;5068113;28;20027;-44
2021/11/23 06:13:58;;;;;;;5.85;4.00;;;6.00;99.90;;;;;;5067468;28;20515;-43
2021/11/23 06:16:24;;;;;;;7.50;4.28;;;6.10;99.90;;;;;;5067494;28;20076;-42
2021/11/23 06:18:50;;;;;;;7.07;3.80;;;6.00;99.90;;;;;;5068119;28;20052;-42
2021/11/23 06:21:15;;;;;;;6.25;3.80;;;6.00;99.90;;;;;;5067791;28;20453;-42
2021/11/23 06:23:41;;;;;;;5.85;3.92;;;6.00;99.90;;;;;;5067952;28;20882;-44
2021/11/23 06:26:08;;;;;;;5.85;3.85;;;6.00;99.90;;;;;;5067811;28;20025;-43
2021/11/23 06:28:33;;;;;;;7.53;3.85;;;6.00;99.90;;;;;;5063267;28;20515;-42
2021/11/23 06:30:59;;;;;;;5.32;3.20;;;6.10;99.90;;;;;;5068144;28;20052;-42
2021/11/23 06:33:25;;;;;;;5.13;4.10;;;6.10;99.90;;;;;;5067729;28;20111;-43
2021/11/23 06:35:50;;;;;;;6.60;3.42;;;6.00;99.90;;;;;;5067369;28;20016;-43
2021/11/23 06:38:16;;;;;;;8.40;3.80;;;6.10;99.90;;;;;;5063223;28;20047;-44
2021/11/23 06:40:42;;;;;;;7.65;3.70;;;6.10;99.90;;;;;;5065959;28;20024;-43
2021/11/23 06:43:09;;;;;;;7.25;3.58;;;6.10;99.90;;;;;;5063943;28;20034;-43
2021/11/23 06:45:36;;;;;;;4.45;3.90;;;6.10;99.90;;;;;;5066664;28;20024;-44
2021/11/23 06:48:02;;;;;;;6.78;3.92;;;6.10;99.90;;;;;;5065796;28;20032;-42
2021/11/23 06:50:32;;;;;;;5.60;4.00;;;6.10;99.90;;;;;;5066492;28;20884;-43
2021/11/23 06:53:03;;;;;;;7.38;3.75;;;6.10;99.90;;;;;;5064808;28;20016;-42
2021/11/23 06:55:29;;;;;;;5.20;3.42;;;6.10;99.90;;;;;;5066011;28;20036;-43
2021/11/23 06:58:04;;;;;;;9.27;5.28;;;6.00;99.90;;;;;;5066187;28;20550;-43
2021/11/23 07:00:30;;;;;;;5.25;3.60;;;6.00;99.90;;;;;;5066169;28;20439;-42
2021/11/23 07:02:56;;;;;;;5.15;3.42;;;6.00;99.90;;;;;;5065217;28;20111;-42
2021/11/23 07:05:22;;;;;;;5.93;4.05;;;6.10;99.90;;;;;;5066416;28;20617;-42
2021/11/23 07:07:48;;;;;;;4.50;2.97;;;6.10;99.90;;;;;;5065316;28;20103;-42
2021/11/23 07:10:14;;;;;;;7.25;3.85;;;6.20;99.90;;;;;;5065726;28;20127;-44
2021/11/23 07:12:41;;;;;;;4.80;3.50;;;6.20;99.90;;;;;;5066438;28;20038;-43
2021/11/23 07:15:08;;;;;;;6.10;3.67;;;6.20;99.90;;;;;;5063427;28;20028;-44
2021/11/23 07:17:34;;;;;;;7.57;4.00;;;6.20;99.90;;;;;;5066087;28;20049;-44
2021/11/23 07:19:59;;;;;;;8.32;3.83;;;6.30;99.90;;;;;;5066686;28;20094;-44
2021/11/23 07:22:25;;;;;;;7.00;4.00;;;6.30;99.90;;;;;;5067231;28;20044;-43
2021/11/23 07:24:51;;;;;;;6.60;4.05;;;6.40;99.90;;;;;;5064141;28;20020;-44
2021/11/23 07:27:17;;;;;;;10.40;4.68;;;6.40;99.90;;;;;;5067102;28;20075;-43
2021/11/23 07:29:42;;;;;;;7.05;4.35;;;6.60;99.90;;;;;;5066509;28;20036;-44
2021/11/23 07:32:08;;;;;;;8.50;5.15;;;6.70;99.90;;;;;;5066723;28;20037;-42
2021/11/23 07:34:34;;;;;;;8.63;4.10;;;6.80;99.90;;;;;;5066675;28;20032;-43
2021/11/23 07:37:00;;;;;;;8.95;4.00;;;7.00;99.90;;;;;;5066460;28;20094;-44
2021/11/23 07:39:27;;;;;;;6.50;3.72;;;7.00;99.90;;;;;;5064622;28;20033;-42
2021/11/23 07:41:53;;;;;;;6.95;4.45;;;7.10;99.90;;;;;;5052968;28;20370;-43
2021/11/23 07:44:19;;;;;;;5.78;4.30;;;7.10;99.90;;;;;;5033937;28;20024;-44
2021/11/23 07:46:44;;;;;;;6.38;4.45;;;7.10;99.90;;;;;;5066623;28;20025;-43
2021/11/23 07:49:10;;;;;;;6.32;5.40;;;7.10;99.90;;;;;;5065906;28;20017;-43
2021/11/23 07:51:36;;;;;;;8.20;5.32;;;7.20;99.90;;;;;;5066066;28;20372;-43
2021/11/23 07:54:04;;;;;;;8.90;5.00;;;7.20;99.90;;;;;;5050740;28;20024;-43
2021/11/23 07:56:33;;;;;;;8.23;5.13;;;7.20;99.90;;;;;;5062283;28;20028;-43
2021/11/23 07:58:58;;;;;;;8.15;5.72;;;7.20;99.90;;;;;;5066015;28;20036;-42
2021/11/23 08:01:24;;;;;;;8.57;4.93;;;7.20;99.90;;;;;;5065995;28;20074;-43
2021/11/23 08:03:50;;;;;;;7.18;4.47;;;7.10;99.90;;;;;;5051503;28;20032;-44
2021/11/23 08:06:16;;;;;;;9.43;5.20;;;7.10;99.90;;;;;;5065314;28;20027;-42
2021/11/23 08:08:41;;;;;;;7.25;4.70;;;7.10;99.90;;;;;;5066398;28;20035;-43
2021/11/23 08:11:07;;;;;;;9.68;4.72;;;7.10;99.90;;;;;;5066181;28;20028;-42
2021/11/23 08:13:34;;;;;;;6.15;4.35;;;7.10;99.90;;;;;;5050234;28;20033;-44
2021/11/23 08:16:03;;;;;;;7.65;4.55;;;7.10;99.90;;;;;;5065472;28;20020;-44
2021/11/23 08:18:30;;;;;;;6.15;4.78;;;7.10;99.90;;;;;;5066893;28;20051;-43
2021/11/23 08:20:56;;;;;;;6.55;4.20;;;7.10;99.90;;;;;;5069321;28;20435;-42
2021/11/23 08:23:22;;;;;;;7.45;4.28;;;7.10;99.90;;;;;;5059652;28;20082;-42
2021/11/23 08:25:47;;;;;;;8.57;4.70;;;7.10;99.90;;;;;;5064985;28;20038;-43
2021/11/23 08:28:13;;;;;;;4.15;3.67;;;7.10;99.90;;;;;;5069596;28;20025;-43
2021/11/23 08:30:42;;;;;;;5.57;4.40;;;7.10;99.90;;;;;;5069847;28;20093;-43
2021/11/23 08:33:07;;;;;;;8.85;5.13;;;7.10;99.90;;;;;;5059331;28;20058;-44
2021/11/23 08:35:33;;;;;;;13.82;5.72;;;7.10;99.90;;;;;;5064221;28;20035;-43
2021/11/23 08:37:59;;;;;;;7.63;5.13;;;7.00;99.90;;;;;;5069866;28;20471;-43
2021/11/23 08:40:25;;;;;;;7.85;4.85;;;7.00;99.90;;;;;;5069532;28;20055;-43
2021/11/23 08:42:51;;;;;;;8.30;5.45;;;7.00;99.90;;;;;;5062742;28;20111;-42
2021/11/23 08:45:17;;;;;;;8.55;5.03;;;7.10;99.90;;;;;;5060808;28;20392;-42
2021/11/23 08:47:47;;;;;;;8.20;5.20;;;7.10;99.90;;;;;;5068839;28;20032;-43
2021/11/23 08:50:13;;;;;;;6.50;5.18;;;7.10;99.90;;;;;;5070321;28;20029;-44
2021/11/23 08:52:39;;;;;;;6.25;4.50;;;7.10;99.90;;;;;;5062844;28;20033;-44
2021/11/23 08:55:06;;;;;;;9.30;5.25;;;7.10;99.90;;;;;;5059620;28;20032;-45
2021/11/23 08:57:32;;;;;;;8.88;5.20;;;7.10;99.90;;;;;;5069277;28;20391;-42
2021/11/23 09:00:12;;;;;;;10.85;5.07;;;7.10;99.90;;;;;;5069107;28;20477;-44
2021/11/23 09:02:38;;;;;;;11.60;5.80;;;7.20;99.90;;;;;;5062414;28;20727;-43
2021/11/23 09:05:10;;;;;;;9.73;5.38;;;7.20;99.90;;;;;;5060678;28;20104;-43
2021/11/23 09:07:37;;;;;;;9.00;5.22;;;7.30;99.90;;;;;;5068182;28;20017;-43
2021/11/23 09:10:09;;;;;;;8.70;5.57;;;7.40;99.90;;;;;;5068834;28;20024;-43
2021/11/23 09:12:35;;;;;;;9.45;5.40;;;7.40;99.90;;;;;;5061468;28;20031;-43
2021/11/23 09:15:00;;;;;;;9.57;5.47;;;7.50;99.90;;;;;;5059964;28;20013;-43
2021/11/23 09:17:26;;;;;;;7.72;5.15;;;7.60;99.90;;;;;;5067628;28;20048;-43
2021/11/23 09:19:52;;;;;;;8.30;5.65;;;7.60;99.90;;;;;;5068688;28;20384;-42
2021/11/23 09:22:18;;;;;;;11.90;6.15;;;7.80;99.90;;;;;;5069659;28;20074;-43
2021/11/23 09:24:46;;;;;;;10.80;5.50;;;7.80;99.90;;;;;;5053125;28;20032;-43
2021/11/23 09:27:12;;;;;;;11.23;6.00;;;8.00;99.90;;;;;;5067868;28;20029;-43
2021/11/23 09:29:38;;;;;;;11.25;5.18;;;8.10;99.90;;;;;;5067956;28;20487;-44
2021/11/23 09:32:07;;;;;;;10.32;6.20;;;8.20;99.90;;;;;;5068283;28;20396;-43
2021/11/23 09:34:33;;;;;;;10.50;5.90;;;8.20;99.90;;;;;;5053700;28;20082;-43
2021/11/23 09:36:59;;;;;;;8.30;5.65;;;8.30;99.90;;;;;;5067508;28;20043;-43
2021/11/23 09:39:25;;;;;;;8.00;5.93;;;8.30;99.90;;;;;;5068631;28;20025;-43
2021/11/23 09:41:51;;;;;;;9.52;5.78;;;8.50;99.90;;;;;;5068235;28;20025;-44
2021/11/23 09:44:17;;;;;;;13.13;6.68;;;8.50;99.90;;;;;;5052860;28;20100;-44
2021/11/23 09:46:43;;;;;;;10.75;6.13;;;8.60;99.90;;;;;;5068254;28;20028;-42
2021/11/23 09:49:08;;;;;;;9.55;6.03;;;8.70;99.90;;;;;;5068298;28;20040;-43
2021/11/23 09:51:35;;;;;;;12.27;7.07;;;8.70;99.90;;;;;;5067698;28;20033;-44
2021/11/23 09:54:04;;;;;;;10.40;6.28;;;8.70;99.90;;;;;;5053167;28;20017;-43
2021/11/23 09:56:31;;;;;;;10.65;6.13;;;8.80;99.90;;;;;;5067795;28;20027;-42
2021/11/23 09:58:57;;;;;;;10.05;6.40;;;8.90;99.90;;;;;;5067303;28;20044;-43
2021/11/23 10:01:25;;;;;;;11.70;6.97;;;8.90;99.90;;;;;;5068230;28;20027;-43
2021/11/23 10:03:53;;;;;;;7.55;5.55;;;8.90;99.90;;;;;;5052598;28;20023;-43
2021/11/23 10:06:22;;;;;;;11.48;6.68;;;9.00;99.90;;;;;;5056861;28;20035;-43
2021/11/23 10:08:50;;;;;;;11.18;6.22;;;9.00;99.90;;;;;;5067379;28;20472;-43
2021/11/23 10:11:29;;;;;;;13.00;7.65;;;9.10;99.90;;;;;;5068263;28;20036;-42
2021/11/23 10:14:01;;;;;;;9.38;6.72;;;9.10;99.90;;;;;;5052370;28;20024;-42
2021/11/23 10:16:39;;;;;;;8.82;6.65;;;9.20;99.90;;;;;;5067259;28;20044;-44
2021/11/23 10:19:08;;;;;;;11.05;6.50;;;9.20;99.90;;;;;;5066954;28;20028;-44
2021/11/23 10:21:33;;;;;;;13.15;8.02;;;9.20;99.90;;;;;;5067726;28;20021;-44
2021/11/23 10:23:59;;;;;;;15.30;7.43;;;9.20;99.90;;;;;;5052067;28;20117;-44
2021/11/23 10:26:32;;;;;;;15.88;7.38;;;9.20;99.90;;;;;;5066856;28;20431;-43
2021/11/23 10:29:04;;;;;;;11.65;8.50;;;9.30;99.90;;;;;;5067528;28;20028;-43
2021/11/23 10:31:39;;;;;;;13.25;8.00;;;9.30;99.90;;;;;;5067796;28;20094;-43
2021/11/23 10:34:15;;;;;;;13.57;7.10;;;9.40;99.90;;;;;;5051777;28;20056;-43
2021/11/23 10:36:43;;;;;;;12.50;7.45;;;9.50;99.90;;;;;;5067153;28;20504;-43
2021/11/23 10:39:17;;;;;;;12.88;7.22;;;9.50;99.90;;;;;;5067206;28;20586;-43
2021/11/23 10:41:50;;;;;;;10.90;7.22;;;9.50;99.90;;;;;;5066558;28;20024;-44
2021/11/23 10:44:24;;;;;;;10.00;7.18;;;9.60;99.90;;;;;;5052103;28;20025;-43
2021/11/23 10:46:53;;;;;;;8.48;6.20;;;9.60;99.90;;;;;;5066985;28;20468;-43
2021/11/23 10:49:30;;;;;;;7.82;5.45;;;9.60;99.90;;;;;;5066729;28;20032;-43
2021/11/23 10:51:56;;;;;;;7.18;4.97;;;9.60;99.90;;;;;;5066731;28;20028;-42
2021/11/23 10:54:23;;;;;;;7.90;4.57;;;9.70;99.90;;;;;;5051959;28;20029;-43
2021/11/23 10:57:01;;;;;;;6.03;4.80;;;9.80;99.90;;;;;;5066881;28;20027;-43
2021/11/23 10:59:27;;;;;;;7.38;4.57;;;9.90;99.90;;;;;;5046880;28;20661;-44
2021/11/23 11:01:53;;;;;;;6.47;4.25;;;10.00;99.90;;;;;;5061005;28;20024;-43
2021/11/23 11:04:19;;;;;;;7.13;4.40;;;10.00;99.90;;;;;;5052370;28;20112;-44
2021/11/23 11:06:47;;;;;;;6.32;4.15;;;10.00;99.90;;;;;;5066806;28;20028;-43
2021/11/23 11:09:15;;;;;;;4.22;3.83;;;10.00;99.90;;;;;;5066057;28;20068;-44
2021/11/23 11:11:41;;;;;;;4.60;3.20;;;10.10;99.90;;;;;;5067023;28;20063;-44
2021/11/23 11:14:07;;;;;;;5.22;3.03;;;10.10;99.90;;;;;;5051616;28;20048;-43
2021/11/23 11:16:36;;;;;;;6.32;3.45;;;10.10;99.90;;;;;;5066338;28;20131;-43
2021/11/23 11:19:10;;;;;;;5.07;2.92;;;10.20;99.90;;;;;;5066562;28;20040;-43
2021/11/23 11:21:56;;;;;;;5.00;3.03;;;10.20;99.90;;;;;;5066295;28;20028;-43
2021/11/23 11:24:39;;;;;;;4.80;3.00;;;10.20;99.90;;;;;;5047233;28;20586;-44
2021/11/23 11:27:35;;;;;;;5.05;2.60;;;10.30;99.90;;;;;;5062533;28;20028;-43
2021/11/23 11:30:21;;;;;;;4.82;2.70;;;10.40;99.90;;;;;;5066566;28;20285;-43
2021/11/23 11:32:53;;;;;;;3.05;2.22;;;10.50;99.90;;;;;;5060671;28;20040;-44
2021/11/23 11:35:31;;;;;;;3.83;2.72;;;10.60;99.90;;;;;;5057955;28;20031;-43
2021/11/23 11:38:01;;;;;;;5.75;2.45;;;10.60;99.90;;;;;;5066141;28;20380;-43
2021/11/23 11:40:29;;;;;;;6.57;3.33;;;10.70;99.90;;;;;;5066565;28;20100;-44
2021/11/23 11:43:07;;;;;;;5.72;3.08;;;10.80;99.90;;;;;;5060403;28;20395;-42
2021/11/23 11:45:46;;;;;;;5.03;2.97;;;10.80;99.90;;;;;;5061674;28;20095;-44
2021/11/23 11:48:30;;;;;;;6.00;2.72;;;10.90;99.90;;;;;;5066108;28;20369;-43
2021/11/23 11:51:01;;;;;;;6.38;3.22;;;10.90;99.90;;;;;;5066073;28;20056;-44
2021/11/23 11:53:47;;;;;;;4.75;3.00;;;10.90;99.90;;;;;;5056113;28;20020;-42
2021/11/23 11:56:17;;;;;;;5.95;2.95;;;10.90;99.90;;;;;;5070241;28;20480;-43
2021/11/23 11:58:56;;;;;;;5.05;2.70;;;10.90;99.90;;;;;;5069108;28;20036;-43
2021/11/23 12:01:32;;;;;;;6.40;2.85;;;10.90;99.90;;;;;;5070258;28;20029;-42
2021/11/23 12:04:15;;;;;;;6.93;3.28;;;10.80;99.90;;;;;;5055197;28;20107;-42
2021/11/23 12:06:56;;;;;;;6.32;3.13;;;10.80;99.90;;;;;;5049858;28;20544;-44
2021/11/23 12:09:31;;;;;;;5.90;3.35;;;10.70;99.90;;;;;;5067091;28;20050;-43
2021/11/23 12:12:01;;;;;;;4.75;3.50;;;10.70;99.90;;;;;;5069559;28;20029;-44
2021/11/23 12:14:34;;;;;;;4.25;3.40;;;10.70;99.90;;;;;;5054803;28;20063;-43
2021/11/23 12:17:11;;;;;;;6.85;4.15;;;10.60;99.90;;;;;;5049830;28;20164;-43
2021/11/23 12:19:54;;;;;;;5.88;3.60;;;10.60;99.90;;;;;;5065630;28;20535;-44
2021/11/23 12:22:25;;;;;;;7.30;2.83;;;10.50;99.90;;;;;;5048415;28;20485;-44
2021/11/23 12:25:02;;;;;;;3.70;2.78;;;10.50;99.90;;;;;;5052603;28;20391;-43
2021/11/23 12:27:36;;;;;;;7.20;3.60;;;10.50;99.90;;;;;;5049721;28;20468;-42
2021/11/23 12:30:03;;;;;;;5.63;3.38;;;10.40;99.90;;;;;;5066209;28;20027;-43
2021/11/23 12:32:34;;;;;;;7.72;3.60;;;10.40;99.90;;;;;;5042880;28;20040;-43
2021/11/23 12:35:00;;;;;;;6.35;3.58;;;10.40;99.90;;;;;;5055170;28;20031;-43
2021/11/23 12:37:31;;;;;;;4.88;3.25;;;10.40;99.90;;;;;;5069697;28;20064;-44
2021/11/23 12:39:58;;;;;;;6.03;3.60;;;10.40;99.90;;;;;;5069356;28;20103;-43
2021/11/23 12:42:24;;;;;;;6.55;3.60;;;10.50;99.90;;;;;;5067894;28;20028;-44
2021/11/23 12:44:52;;;;;;;5.18;3.17;;;10.50;99.90;;;;;;5055846;28;20452;-44
2021/11/23 12:47:20;;;;;;;5.53;3.80;;;10.60;99.90;;;;;;5069144;28;20017;-44
2021/11/23 12:49:59;;;;;;;4.85;3.45;;;10.60;99.90;;;;;;5069563;28;20506;-42
2021/11/23 12:52:30;;;;;;;4.75;3.08;;;10.70;99.90;;;;;;5067799;28;20016;-43
2021/11/23 12:54:56;;;;;;;4.65;3.17;;;10.70;99.90;;;;;;5059256;28;20637;-44